88CA weather

Regional Medical Center San Jose H2 Heliport
San Jose, California, United States

Public forecast

Using degrees Fahrenheit for public forecast. Weather courtesy of forecast.io.

Closest aviation weather report (METAR) to Regional Medical Center San Jose H2 Heliport

Closest report is Reid-Hillview Airport of Santa Clara County, 2.2 nm (4.1 km) SE. Retrieved 2019/10/21 00:47 UTC (15 minutes ago):

KRHV 210047Z 30010KT 10SM SKC 21/06 A3009

Closest aviation forecast (TAF) to Regional Medical Center San Jose H2 Heliport

Closest forecast is Norman Y. Mineta San Jose International Airport, 3.8 nm (7.1 km) W. Retrieved 2019-10-21 00:27 UTC (35 minutes ago):

TAF KSJC 202324Z 2100/2124 32012KT P6SM SKC FM210400 VRB03KT P6SM SKC FM210800 16004KT P6SM SKC FM211700 29004KT P6SM SKC FM212000 30010KT P6SM SKC